Terminal Aerodrome Forecast
Issued by NWS Twin Cities, MN

Home | Current Version | Previous Version | Text Only | Print | Product List | Glossary Off
Versions: 1 2 3 4 5 6 7 8 9 10 11 12 13 14 15 16 17 18 19 20

000
FTUS43 KMPX 210520
TAFEAU
TAF
KEAU 210520Z 2106/2206 24003KT P6SM SKC
     FM211200 27006KT P6SM SCT100
     FM211700 30012G18KT P6SM SCT060 SCT120
     FM220100 33006KT P6SM FEW060=

USA.gov is the U.S. government's official web portal to all federal, state and local government web resources and services.